createdAt,value
2022-08-11T00:03:55.791Z,18.4
2022-08-11T00:08:58.880Z,18.4
2022-08-11T00:14:01.168Z,18.4
2022-08-11T00:19:03.530Z,18.4
2022-08-11T00:24:06.233Z,18.4
2022-08-11T00:29:08.643Z,18.4
2022-08-11T00:34:10.951Z,18.3
2022-08-11T00:39:14.176Z,18.1
2022-08-11T00:44:17.231Z,18
2022-08-11T00:49:19.514Z,18
2022-08-11T00:54:22.269Z,17.8
2022-08-11T00:59:37.263Z,17.8
2022-08-11T01:04:29.533Z,17.8
2022-08-11T01:09:32.364Z,17.8
2022-08-11T01:14:37.088Z,17.9
2022-08-11T01:20:50.703Z,17.9
2022-08-11T01:24:43.037Z,18
2022-08-11T01:29:51.572Z,18.1
2022-08-11T01:34:54.184Z,18.1
2022-08-11T01:39:56.840Z,18
2022-08-11T01:44:59.259Z,18
2022-08-11T01:50:12.038Z,18
2022-08-11T01:55:04.614Z,18
2022-08-11T02:00:06.867Z,18
2022-08-11T02:05:09.198Z,18.1
2022-08-11T02:10:18.099Z,18.1
2022-08-11T02:15:16.879Z,18
2022-08-11T02:20:19.581Z,17.9
2022-08-11T02:25:22.349Z,18
2022-08-11T02:30:25.019Z,18
2022-08-11T02:35:27.398Z,18
2022-08-11T02:40:30.145Z,17.9
2022-08-11T02:45:33.162Z,17.9
2022-08-11T02:50:35.788Z,17.8
2022-08-11T02:55:59.604Z,17.9
2022-08-11T03:00:42.298Z,17.8
2022-08-11T03:05:44.628Z,17.8
2022-08-11T03:10:50.337Z,17.8
2022-08-11T03:15:52.871Z,17.8
2022-08-11T03:20:55.424Z,17.8
2022-08-11T03:25:57.729Z,17.8
2022-08-11T03:31:00.468Z,17.8
2022-08-11T03:36:02.985Z,17.8
2022-08-11T03:42:09.448Z,17.8
2022-08-11T03:46:12.698Z,17.8
2022-08-11T03:51:15.254Z,17.9
2022-08-11T03:56:17.496Z,18
2022-08-11T04:01:20.336Z,18.2
2022-08-11T04:06:23.206Z,18.4
2022-08-11T04:11:25.450Z,18.3
2022-08-11T04:16:27.744Z,18.6
2022-08-11T04:21:30.379Z,18.9
2022-08-11T04:26:36.973Z,19.1
2022-08-11T04:31:53.983Z,19.3
2022-08-11T04:36:46.268Z,19.3
2022-08-11T04:41:48.971Z,19.9
2022-08-11T04:46:51.569Z,20.2
2022-08-11T04:51:54.136Z,20.2
2022-08-11T04:56:56.442Z,20.6
2022-08-11T05:01:59.173Z,21.2
2022-08-11T05:07:02.089Z,21.4
2022-08-11T05:12:04.639Z,21.4
2022-08-11T05:17:07.117Z,21.6
2022-08-11T05:22:10.867Z,22.3
2022-08-11T05:27:16.141Z,22.5
2022-08-11T05:32:18.729Z,22.8
2022-08-11T05:37:29.126Z,22.9
2022-08-11T05:42:32.346Z,23.1
2022-08-11T05:47:24.699Z,23.1
2022-08-11T05:52:41.679Z,23.6
2022-08-11T05:57:53.213Z,24
2022-08-11T06:02:35.506Z,24
2022-08-11T06:07:51.692Z,24.2
2022-08-11T06:12:44.240Z,24.5
2022-08-11T06:17:46.575Z,24.5
2022-08-11T06:22:54.719Z,24.8
2022-08-11T06:27:57.935Z,24.8
2022-08-11T06:33:00.258Z,24.6
2022-08-11T06:38:03.220Z,24.8
2022-08-11T06:43:05.780Z,24.8
2022-08-11T06:48:08.161Z,25.5
2022-08-11T06:53:11.074Z,25.8
2022-08-11T06:58:15.090Z,25.9
2022-08-11T07:03:17.335Z,25.8
2022-08-11T07:08:37.449Z,26.5
2022-08-11T07:13:47.108Z,26.9
2022-08-11T07:18:39.599Z,27
2022-08-11T07:23:43.270Z,27.1
2022-08-11T07:28:45.955Z,27.6
2022-08-11T07:34:16.015Z,27.9
2022-08-11T07:38:50.340Z,27.8
2022-08-11T07:43:53.298Z,28.2
2022-08-11T07:48:55.657Z,28.2
2022-08-11T07:54:18.029Z,29
2022-08-11T07:59:10.201Z,29.2
2022-08-11T08:04:05.209Z,28.5
2022-08-11T08:09:08.001Z,28.5
2022-08-11T08:14:10.282Z,28.7
2022-08-11T08:19:13.124Z,29.1
2022-08-11T08:24:15.431Z,29.1
2022-08-11T08:29:17.727Z,29.6
2022-08-11T08:34:20.578Z,30.4
2022-08-11T08:39:23.281Z,30.4
2022-08-11T08:44:46.241Z,30.9
2022-08-11T08:49:29.183Z,30.7
2022-08-11T08:54:31.492Z,30.7
2022-08-11T08:59:52.788Z,31.9
2022-08-11T09:04:36.249Z,31.9
2022-08-11T09:09:39.094Z,31.5
2022-08-11T09:19:55.944Z,32.3
2022-08-11T09:24:50.723Z,33.2
2022-08-11T09:29:53.024Z,33.1
2022-08-11T09:34:56.136Z,33
2022-08-11T09:39:58.759Z,34.2
2022-08-11T09:45:04.259Z,33.8
2022-08-11T09:50:06.465Z,33.7
2022-08-11T09:55:08.790Z,33.7
2022-08-11T10:00:15.673Z,35
2022-08-11T10:05:18.040Z,35
2022-08-11T10:10:20.603Z,35.8
2022-08-11T10:15:22.817Z,36.2
2022-08-11T10:20:27.932Z,35.8
2022-08-11T10:25:30.565Z,35.9
2022-08-11T10:30:32.976Z,35.9
2022-08-11T10:35:37.419Z,37.2
2022-08-11T10:40:39.747Z,36.9
2022-08-11T10:45:42.047Z,37.7
2022-08-11T10:50:44.608Z,36.5
2022-08-11T10:55:47.466Z,37.3
2022-08-11T11:00:50.330Z,37.2
2022-08-11T11:06:31.481Z,38
2022-08-11T11:10:53.824Z,37.8
2022-08-11T11:15:56.470Z,35.1
2022-08-11T11:21:00.241Z,35.3
2022-08-11T11:26:02.868Z,35.6
2022-08-11T11:31:05.180Z,35.5
2022-08-11T11:36:07.472Z,35.6
2022-08-11T11:41:09.974Z,36.6
2022-08-11T11:46:12.301Z,36.6
2022-08-11T11:51:14.962Z,33.5
2022-08-11T11:56:17.581Z,34.8
2022-08-11T12:02:14.289Z,32.6
2022-08-11T12:07:07.879Z,32.5
2022-08-11T12:12:10.434Z,33.8
2022-08-11T12:17:12.799Z,34.1
2022-08-11T12:22:15.098Z,32.3
2022-08-11T12:27:19.786Z,33.3
2022-08-11T12:32:17.656Z,33.3
2022-08-11T12:37:20.509Z,33.6
2022-08-11T12:42:23.858Z,32.3
2022-08-11T12:47:30.184Z,31.1
2022-08-11T12:52:32.473Z,31
2022-08-11T12:57:40.067Z,32.1
2022-08-11T13:02:46.378Z,32.2
2022-08-11T13:07:53.453Z,32.5
2022-08-11T13:12:56.038Z,32.4
2022-08-11T13:17:58.584Z,31.9
2022-08-11T13:23:01.156Z,30.7
2022-08-11T13:28:03.539Z,30.7
2022-08-11T13:33:06.557Z,30.6
2022-08-11T13:38:29.865Z,30.1
2022-08-11T13:43:12.622Z,30
2022-08-11T13:48:15.261Z,29.5
2022-08-11T13:53:17.876Z,29.3
2022-08-11T13:58:43.692Z,29.3
2022-08-11T14:03:26.724Z,29.5
2022-08-11T14:08:47.362Z,29.8
2022-08-11T14:13:49.518Z,29.9
2022-08-11T14:18:42.202Z,29.4
2022-08-11T14:23:45.160Z,29.2
2022-08-11T14:28:48.548Z,29.2
2022-08-11T14:34:03.502Z,29
2022-08-11T14:38:56.482Z,29.1
2022-08-11T14:44:16.144Z,28.7
2022-08-11T14:49:08.701Z,28.7
2022-08-11T14:54:11.444Z,28.8
2022-08-11T14:59:14.414Z,28.7
2022-08-11T15:04:38.641Z,28.5
2022-08-11T15:09:21.405Z,28.4
2022-08-11T15:14:24.070Z,28.3
2022-08-11T15:19:26.595Z,28.2
2022-08-11T15:24:32.854Z,28.1
2022-08-11T15:29:35.553Z,27.8
2022-08-11T15:34:38.073Z,27.9
2022-08-11T15:39:40.899Z,28
2022-08-11T15:45:05.451Z,27.8
2022-08-11T15:50:15.498Z,27.7
2022-08-11T15:54:58.287Z,27.6
2022-08-11T16:00:00.849Z,27.6
2022-08-11T16:05:03.728Z,27.5
2022-08-11T16:10:10.471Z,27.4
2022-08-11T16:15:11.095Z,27.4
2022-08-11T16:20:13.482Z,27.3
2022-08-11T16:27:15.279Z,27.1
2022-08-11T16:30:21.725Z,27
2022-08-11T16:35:24.319Z,26.9
2022-08-11T16:40:27.096Z,26.8
2022-08-11T16:45:29.625Z,26.7
2022-08-11T16:50:31.972Z,26.7
2022-08-11T16:56:00.324Z,26.4
2022-08-11T17:00:43.182Z,26.4
2022-08-11T17:05:57.205Z,26.2
2022-08-11T17:11:03.242Z,26
2022-08-11T17:15:56.155Z,26
2022-08-11T17:20:58.984Z,25.7
2022-08-11T17:26:06.599Z,25.5
2022-08-11T17:31:24.358Z,25.4
2022-08-11T17:36:16.990Z,25.1
2022-08-11T17:41:25.357Z,25
2022-08-11T17:46:27.631Z,24.9
2022-08-11T17:51:30.146Z,24.8
2022-08-11T17:56:32.450Z,24.7
2022-08-11T18:01:35.672Z,24.3
2022-08-11T18:06:42.660Z,24.2
2022-08-11T18:12:14.423Z,23.9
2022-08-11T18:16:47.302Z,23.6
2022-08-11T18:22:17.301Z,23.4
2022-08-11T18:26:59.974Z,23.3
2022-08-11T18:32:05.402Z,23.1
2022-08-11T18:37:07.699Z,23.1
2022-08-11T18:42:11.866Z,22.8
2022-08-11T18:47:30.688Z,22.8
2022-08-11T18:52:28.155Z,22.7
2022-08-11T18:57:49.964Z,22.6
2022-08-11T19:02:51.784Z,22.5
2022-08-11T19:07:44.422Z,22.5
2022-08-11T19:12:48.870Z,22.5
2022-08-11T19:17:51.469Z,22.4
2022-08-11T19:22:54.029Z,22.3
2022-08-11T19:27:56.796Z,22.2
2022-08-11T19:32:59.263Z,22.1
2022-08-11T19:38:02.376Z,22
2022-08-11T19:43:19.957Z,22
2022-08-11T19:48:33.798Z,21.9
2022-08-11T19:53:19.505Z,21.9
2022-08-11T19:58:21.863Z,21.9
2022-08-11T20:03:24.458Z,21.9
2022-08-11T20:08:26.793Z,21.9
2022-08-11T20:13:29.148Z,22.1
2022-08-11T20:18:32.963Z,22.2
2022-08-11T20:23:35.766Z,22.1
2022-08-11T20:28:38.868Z,22
2022-08-11T20:33:41.284Z,21.9
2022-08-11T20:38:43.911Z,21.7
2022-08-11T20:44:10.729Z,21.7
2022-08-11T20:48:53.441Z,21.6
2022-08-11T20:53:57.292Z,21.6
2022-08-11T20:59:38.571Z,21.6
2022-08-11T21:04:12.303Z,21.6
2022-08-11T21:09:21.614Z,21.6
2022-08-11T21:14:22.420Z,21.6
2022-08-11T21:20:15.677Z,21.6
2022-08-11T21:24:33.053Z,21.6
2022-08-11T21:29:35.957Z,21.6
2022-08-11T21:34:40.182Z,21.6
2022-08-11T21:39:43.452Z,21.6
2022-08-11T21:44:46.245Z,21.5
2022-08-11T21:49:48.885Z,21.5
2022-08-11T21:54:51.209Z,21.5
2022-08-11T21:59:53.748Z,21.5
2022-08-11T22:04:56.387Z,21.5
2022-08-11T22:09:58.837Z,21.4
2022-08-11T22:15:01.104Z,21.4
2022-08-11T22:20:03.702Z,21.3
2022-08-11T22:25:19.811Z,21.3
2022-08-11T22:30:14.604Z,21.3
2022-08-11T22:35:17.183Z,21.2
2022-08-11T22:40:20.010Z,21.1
2022-08-11T22:45:22.961Z,21.1
2022-08-11T22:50:25.558Z,21
2022-08-11T22:55:27.925Z,20.9
2022-08-11T23:00:32.688Z,20.8
2022-08-11T23:05:35.497Z,20.8
2022-08-11T23:10:37.777Z,20.7
2022-08-11T23:15:43.661Z,20.5
2022-08-11T23:20:55.034Z,20.5
2022-08-11T23:25:52.023Z,20.4
2022-08-11T23:30:55.235Z,20.3
2022-08-11T23:36:06.944Z,20.2
2022-08-11T23:40:59.634Z,20.2
2022-08-11T23:46:03.074Z,20.1
